createdAt,value
2023-04-02T00:00:35.645Z,79.05
2023-04-02T00:01:35.599Z,78.29
2023-04-02T00:02:35.707Z,78.74
2023-04-02T00:03:35.682Z,79.53
2023-04-02T00:04:35.568Z,79.84
2023-04-02T00:05:35.796Z,79.57
2023-04-02T00:06:35.551Z,79.47
2023-04-02T00:07:35.533Z,79.67
2023-04-02T00:08:35.523Z,78.95
2023-04-02T00:09:35.513Z,79.02
2023-04-02T00:10:35.543Z,79.57
2023-04-02T00:11:35.498Z,79.77
2023-04-02T00:12:35.493Z,79.26
2023-04-02T00:13:35.508Z,78.74
2023-04-02T00:14:35.466Z,79.36
2023-04-02T00:15:35.772Z,78.95
2023-04-02T00:16:35.461Z,78.95
2023-04-02T00:17:35.438Z,79.05
2023-04-02T00:18:35.461Z,78.53
2023-04-02T00:19:35.463Z,78.02
2023-04-02T00:20:35.522Z,78.43
2023-04-02T00:21:35.394Z,78.53
2023-04-02T00:22:35.396Z,78.16
2023-04-02T00:23:35.365Z,79.19
2023-04-02T00:24:35.367Z,79.19
2023-04-02T00:25:35.667Z,78.43
2023-04-02T00:26:35.366Z,79.30
2023-04-02T00:27:35.355Z,79.05
2023-04-02T00:28:35.342Z,79.57
2023-04-02T00:29:35.303Z,79.77
2023-04-02T00:30:35.308Z,79.57
2023-04-02T00:31:35.310Z,78.02
2023-04-02T00:32:35.300Z,78.02
2023-04-02T00:33:35.271Z,78.22
2023-04-02T00:34:35.249Z,78.02
2023-04-02T00:35:35.512Z,77.60
2023-04-02T00:36:35.226Z,78.02
2023-04-02T00:37:35.223Z,77.70
2023-04-02T00:38:35.203Z,77.60
2023-04-02T00:39:35.193Z,77.64
2023-04-02T00:40:35.207Z,77.22
2023-04-02T00:41:35.172Z,76.98
2023-04-02T00:42:35.161Z,77.22
2023-04-02T00:43:35.155Z,77.12
2023-04-02T00:44:35.139Z,76.29
2023-04-02T00:45:35.367Z,76.40
2023-04-02T00:46:35.118Z,77.01
2023-04-02T00:47:35.150Z,76.81
2023-04-02T00:48:35.161Z,76.91
2023-04-02T00:49:35.093Z,76.61
2023-04-02T00:50:35.098Z,76.29
2023-04-02T00:51:35.103Z,76.29
2023-04-02T00:52:35.054Z,76.50
2023-04-02T00:53:35.120Z,76.19
2023-04-02T00:54:35.029Z,76.09
2023-04-02T00:55:35.380Z,76.32
2023-04-02T00:56:35.010Z,77.67
2023-04-02T00:57:35.102Z,77.74
2023-04-02T00:58:34.991Z,77.57
2023-04-02T00:59:34.982Z,77.15
2023-04-02T01:00:34.988Z,77.01
2023-04-02T01:01:34.988Z,77.12
2023-04-02T01:02:35.027Z,77.12
2023-04-02T01:03:35.432Z,76.81
2023-04-02T01:04:34.931Z,77.33
2023-04-02T01:05:35.208Z,77.64
2023-04-02T01:06:34.904Z,77.12
2023-04-02T01:07:34.911Z,77.33
2023-04-02T01:08:34.919Z,76.50
2023-04-02T01:09:34.869Z,76.02
2023-04-02T01:10:34.889Z,76.43
2023-04-02T01:11:34.857Z,77.36
2023-04-02T01:12:34.848Z,77.78
2023-04-02T01:13:34.825Z,77.57
2023-04-02T01:14:34.842Z,76.74
2023-04-02T01:15:35.119Z,76.53
2023-04-02T01:16:34.794Z,77.15
2023-04-02T01:17:34.794Z,77.15
2023-04-02T01:18:34.790Z,76.84
2023-04-02T01:19:34.760Z,76.95
2023-04-02T01:20:34.775Z,77.22
2023-04-02T01:21:34.739Z,76.43
2023-04-02T01:22:34.728Z,76.32
2023-04-02T01:23:34.741Z,76.32
2023-04-02T01:24:34.717Z,76.23
2023-04-02T01:25:34.903Z,76.32
2023-04-02T01:26:34.684Z,76.32
2023-04-02T01:27:34.688Z,76.02
2023-04-02T01:28:34.674Z,75.92
2023-04-02T01:29:34.649Z,76.32
2023-04-02T01:30:34.655Z,76.23
2023-04-02T01:31:34.711Z,75.81
2023-04-02T01:32:34.637Z,76.12
2023-04-02T01:33:34.607Z,76.32
2023-04-02T01:34:34.598Z,75.50
2023-04-02T01:35:34.912Z,75.92
2023-04-02T01:36:34.584Z,76.23
2023-04-02T01:37:34.565Z,76.12
2023-04-02T01:38:34.602Z,76.02
2023-04-02T01:39:34.575Z,76.02
2023-04-02T01:40:34.559Z,76.02
2023-04-02T01:41:34.522Z,75.60
2023-04-02T01:42:34.574Z,75.92
2023-04-02T01:43:34.538Z,76.09
2023-04-02T01:44:34.508Z,75.78
2023-04-02T01:45:34.634Z,75.88
2023-04-02T01:46:34.506Z,75.81
2023-04-02T01:47:34.506Z,75.67
2023-04-02T01:48:34.448Z,75.98
2023-04-02T01:49:34.435Z,76.43
2023-04-02T01:50:34.437Z,75.98
2023-04-02T01:51:34.417Z,76.12
2023-04-02T01:52:34.402Z,75.78
2023-04-02T01:53:34.392Z,75.88
2023-04-02T01:54:34.384Z,75.88
2023-04-02T01:55:34.588Z,75.50
2023-04-02T01:56:34.363Z,75.09
2023-04-02T01:57:34.426Z,75.40
2023-04-02T01:58:34.347Z,75.36
2023-04-02T01:59:34.326Z,75.78
2023-04-02T02:00:34.366Z,75.98
2023-04-02T02:01:34.305Z,75.98
2023-04-02T02:02:34.456Z,74.63
2023-04-02T02:03:34.290Z,74.98
2023-04-02T02:04:34.276Z,75.81
2023-04-02T02:05:34.544Z,75.88
2023-04-02T02:06:34.250Z,75.81
2023-04-02T02:07:34.240Z,75.46
2023-04-02T02:08:34.237Z,75.92
2023-04-02T02:09:34.224Z,75.81
2023-04-02T02:10:34.225Z,76.09
2023-04-02T02:11:34.217Z,75.78
2023-04-02T02:12:34.191Z,75.78
2023-04-02T02:13:34.178Z,75.88
2023-04-02T02:14:34.170Z,75.78
2023-04-02T02:15:34.525Z,75.98
2023-04-02T02:16:34.721Z,75.78
2023-04-02T02:17:34.145Z,75.81
2023-04-02T02:18:34.144Z,75.46
2023-04-02T02:19:34.116Z,75.81
2023-04-02T02:20:34.129Z,75.98
2023-04-02T02:21:34.106Z,76.50
2023-04-02T02:22:34.088Z,75.98
2023-04-02T02:23:34.101Z,76.09
2023-04-02T02:24:34.062Z,75.78
2023-04-02T02:25:34.433Z,75.57
2023-04-02T02:26:34.051Z,75.15
2023-04-02T02:27:34.051Z,75.05
2023-04-02T02:28:34.049Z,74.95
2023-04-02T02:29:34.009Z,75.09
2023-04-02T02:30:34.001Z,74.95
2023-04-02T02:31:34.086Z,74.84
2023-04-02T02:32:34.001Z,74.77
2023-04-02T02:33:33.994Z,74.12
2023-04-02T02:34:33.959Z,74.32
2023-04-02T02:35:34.380Z,73.91
2023-04-02T02:36:33.940Z,73.81
2023-04-02T02:37:33.927Z,72.88
2023-04-02T02:38:33.930Z,73.81
2023-04-02T02:39:33.902Z,74.02
2023-04-02T02:40:33.909Z,73.71
2023-04-02T02:41:33.879Z,74.12
2023-04-02T02:42:33.875Z,73.39
2023-04-02T02:43:33.884Z,74.12
2023-04-02T02:44:33.852Z,74.22
2023-04-02T02:45:34.121Z,74.67
2023-04-02T02:46:33.837Z,74.26
2023-04-02T02:47:33.830Z,73.81
2023-04-02T02:48:33.814Z,73.63
2023-04-02T02:49:33.791Z,73.63
2023-04-02T02:50:33.802Z,73.84
2023-04-02T02:51:33.774Z,73.84
2023-04-02T02:52:33.760Z,73.74
2023-04-02T02:53:33.747Z,73.74
2023-04-02T02:54:33.740Z,73.94
2023-04-02T02:55:33.992Z,73.74
2023-04-02T02:56:33.729Z,74.15
2023-04-02T02:57:33.735Z,74.26
2023-04-02T02:58:33.698Z,73.94
2023-04-02T02:59:33.742Z,74.29
2023-04-02T03:00:33.695Z,73.77
2023-04-02T03:01:33.698Z,73.53
2023-04-02T03:02:33.755Z,73.63
2023-04-02T03:03:33.792Z,74.26
2023-04-02T03:04:33.630Z,73.32
2023-04-02T03:05:33.885Z,73.67
2023-04-02T03:06:33.610Z,74.19
2023-04-02T03:07:33.597Z,74.50
2023-04-02T03:08:33.590Z,73.77
2023-04-02T03:09:33.587Z,73.36
2023-04-02T03:10:33.579Z,73.15
2023-04-02T03:11:33.553Z,73.46
2023-04-02T03:12:33.553Z,73.57
2023-04-02T03:13:33.534Z,74.29
2023-04-02T03:14:33.525Z,74.40
2023-04-02T03:15:33.971Z,74.50
2023-04-02T03:16:33.503Z,74.29
2023-04-02T03:17:33.511Z,73.98
2023-04-02T03:18:33.498Z,74.08
2023-04-02T03:19:33.503Z,73.88
2023-04-02T03:20:33.464Z,73.98
2023-04-02T03:21:33.502Z,73.46
2023-04-02T03:22:33.449Z,74.08
2023-04-02T03:23:33.471Z,74.50
2023-04-02T03:24:33.416Z,74.19
2023-04-02T03:25:33.659Z,73.67
2023-04-02T03:26:33.419Z,73.98
2023-04-02T03:27:33.394Z,73.57
2023-04-02T03:28:33.442Z,73.46
2023-04-02T03:29:33.391Z,73.77
2023-04-02T03:30:33.366Z,73.15
2023-04-02T03:31:33.402Z,73.46
2023-04-02T03:32:33.363Z,74.08
2023-04-02T03:33:33.334Z,74.08
2023-04-02T03:34:33.318Z,74.50
2023-04-02T03:35:33.601Z,74.08
2023-04-02T03:36:33.340Z,74.19
2023-04-02T03:37:33.294Z,74.19
2023-04-02T03:38:33.276Z,74.50
2023-04-02T03:39:33.263Z,73.67
2023-04-02T03:40:33.252Z,73.98
2023-04-02T03:41:33.260Z,74.91
2023-04-02T03:42:33.232Z,74.60
2023-04-02T03:43:33.225Z,74.91
2023-04-02T03:44:33.214Z,74.19
2023-04-02T03:45:33.342Z,74.19
2023-04-02T03:46:33.264Z,74.60
2023-04-02T03:47:33.263Z,74.50
2023-04-02T03:48:33.166Z,74.19
2023-04-02T03:49:33.153Z,73.70
2023-04-02T03:50:33.145Z,73.36
2023-04-02T03:51:33.148Z,74.11
2023-04-02T03:52:33.121Z,74.60
2023-04-02T03:53:33.111Z,74.95
2023-04-02T03:54:33.104Z,74.74
2023-04-02T03:55:33.404Z,74.81
2023-04-02T03:56:33.098Z,74.50
2023-04-02T03:57:33.138Z,74.53
2023-04-02T03:58:33.060Z,74.63
2023-04-02T03:59:33.046Z,75.22
2023-04-02T04:00:33.038Z,75.53
2023-04-02T04:01:33.070Z,75.22
2023-04-02T04:02:33.062Z,74.60
2023-04-02T04:03:33.029Z,74.60
2023-04-02T04:04:33.083Z,74.60
2023-04-02T04:05:33.332Z,74.60
2023-04-02T04:06:32.993Z,75.32
2023-04-02T04:07:32.959Z,75.02
2023-04-02T04:08:32.950Z,74.77
2023-04-02T04:09:32.953Z,74.57
2023-04-02T04:10:32.933Z,74.57
2023-04-02T04:11:32.934Z,74.57
2023-04-02T04:12:32.917Z,74.71
2023-04-02T04:13:32.897Z,74.98
2023-04-02T04:14:32.895Z,74.57
2023-04-02T04:15:33.052Z,74.88
2023-04-02T04:16:32.914Z,75.19
2023-04-02T04:17:32.887Z,75.19
2023-04-02T04:18:32.848Z,74.67
2023-04-02T04:19:32.853Z,74.57
2023-04-02T04:20:32.825Z,74.46
2023-04-02T04:21:32.827Z,74.46
2023-04-02T04:22:32.801Z,74.67
2023-04-02T04:23:32.792Z,74.57
2023-04-02T04:24:32.786Z,74.46
2023-04-02T04:25:32.826Z,74.05
2023-04-02T04:26:32.770Z,73.74
2023-04-02T04:27:32.750Z,74.05
2023-04-02T04:28:32.760Z,74.15
2023-04-02T04:29:32.725Z,74.05
2023-04-02T04:30:32.723Z,74.15
2023-04-02T04:31:32.756Z,74.36
2023-04-02T04:32:32.748Z,75.09
2023-04-02T04:33:32.684Z,75.09
2023-04-02T04:34:32.675Z,75.40
2023-04-02T04:35:32.761Z,74.46
2023-04-02T04:36:32.669Z,74.36
2023-04-02T04:37:32.648Z,74.57
2023-04-02T04:38:32.640Z,74.57
2023-04-02T04:39:32.626Z,74.71
2023-04-02T04:40:32.649Z,74.60
2023-04-02T04:41:32.609Z,75.12
2023-04-02T04:42:32.596Z,74.91
2023-04-02T04:43:32.591Z,75.53
2023-04-02T04:44:32.572Z,75.53
2023-04-02T04:45:32.761Z,75.53
2023-04-02T04:46:32.632Z,75.32
2023-04-02T04:47:32.575Z,75.22
2023-04-02T04:48:34.003Z,75.02
2023-04-02T04:49:32.514Z,74.60
2023-04-02T04:50:32.507Z,75.22
2023-04-02T04:51:32.588Z,75.43
2023-04-02T04:52:32.486Z,75.22
2023-04-02T04:53:32.480Z,75.12
2023-04-02T04:54:32.475Z,75.02
2023-04-02T04:55:32.477Z,75.22
2023-04-02T04:56:32.466Z,74.81
2023-04-02T04:57:32.459Z,74.60
2023-04-02T04:58:32.430Z,74.60
2023-04-02T04:59:32.434Z,74.60
2023-04-02T05:00:32.400Z,75.02
2023-04-02T05:01:32.444Z,74.67
2023-04-02T05:02:32.403Z,75.12
2023-04-02T05:03:32.371Z,74.88
2023-04-02T05:04:32.374Z,75.09
2023-04-02T05:05:32.356Z,74.88
2023-04-02T05:06:32.373Z,74.88
2023-04-02T05:07:32.345Z,74.77
2023-04-02T05:08:32.321Z,74.91
2023-04-02T05:09:32.303Z,74.57
2023-04-02T05:10:32.293Z,74.46
2023-04-02T05:11:32.294Z,74.57
2023-04-02T05:12:32.273Z,74.57
2023-04-02T05:13:32.258Z,74.84
2023-04-02T05:14:32.265Z,74.77
2023-04-02T05:15:32.299Z,74.74
2023-04-02T05:16:32.295Z,74.43
2023-04-02T05:17:32.229Z,74.63
2023-04-02T05:18:32.266Z,74.74
2023-04-02T05:19:32.192Z,74.53
2023-04-02T05:20:32.184Z,74.12
2023-04-02T05:21:32.175Z,74.63
2023-04-02T05:22:32.166Z,74.74
2023-04-02T05:23:32.210Z,74.32
2023-04-02T05:24:32.144Z,74.63
2023-04-02T05:25:32.128Z,74.22
2023-04-02T05:26:32.131Z,74.53
2023-04-02T05:27:32.110Z,74.95
2023-04-02T05:28:32.097Z,74.74
2023-04-02T05:29:32.101Z,74.12
2023-04-02T05:30:32.077Z,73.29
2023-04-02T05:31:32.132Z,73.81
2023-04-02T05:32:32.091Z,73.60
2023-04-02T05:33:32.040Z,73.60
2023-04-02T05:34:32.033Z,74.12
2023-04-02T05:35:32.024Z,73.71
2023-04-02T05:36:32.029Z,73.71
2023-04-02T05:37:32.011Z,73.91
2023-04-02T05:38:31.999Z,72.67
2023-04-02T05:39:31.999Z,72.77
2023-04-02T05:40:31.969Z,73.22
2023-04-02T05:41:31.989Z,73.43
2023-04-02T05:42:31.954Z,74.05
2023-04-02T05:43:31.937Z,74.02
2023-04-02T05:44:31.928Z,73.63
2023-04-02T05:45:31.934Z,73.50
2023-04-02T05:46:31.969Z,73.08
2023-04-02T05:47:31.907Z,73.08
2023-04-02T05:48:31.888Z,73.60
2023-04-02T05:49:31.876Z,73.08
2023-04-02T05:50:31.865Z,73.05
2023-04-02T05:51:31.869Z,71.94
2023-04-02T05:52:31.845Z,72.05
2023-04-02T05:53:31.835Z,71.81
2023-04-02T05:54:31.826Z,72.43
2023-04-02T05:55:31.849Z,72.64
2023-04-02T05:56:31.828Z,72.64
2023-04-02T05:57:42.743Z,72.53
2023-04-02T05:58:36.102Z,72.64
2023-04-02T05:59:31.764Z,72.64
2023-04-02T06:00:31.757Z,70.95
2023-04-02T06:01:31.769Z,70.95
2023-04-02T06:02:31.924Z,72.71
2023-04-02T06:03:31.836Z,71.98
2023-04-02T06:04:31.732Z,72.71
2023-04-02T06:05:31.701Z,71.98
2023-04-02T06:06:31.713Z,71.88
2023-04-02T06:07:31.684Z,71.67
2023-04-02T06:08:31.674Z,71.05
2023-04-02T06:09:31.658Z,71.39
2023-04-02T06:10:31.645Z,71.47
2023-04-02T06:11:31.676Z,71.91
2023-04-02T06:12:31.633Z,71.78
2023-04-02T06:13:31.615Z,71.98
2023-04-02T06:14:31.617Z,71.91
2023-04-02T06:15:31.595Z,71.67
2023-04-02T06:16:31.618Z,71.78
2023-04-02T06:17:31.589Z,71.15
2023-04-02T06:18:31.564Z,71.19
2023-04-02T06:19:31.553Z,70.64
2023-04-02T06:20:31.540Z,70.95
2023-04-02T06:21:31.544Z,70.84
2023-04-02T06:22:31.516Z,70.95
2023-04-02T06:23:31.554Z,70.22
2023-04-02T06:24:31.498Z,70.22
2023-04-02T06:25:31.517Z,70.95
2023-04-02T06:26:31.502Z,70.74
2023-04-02T06:27:31.488Z,71.15
2023-04-02T06:28:31.475Z,70.92
2023-04-02T06:29:31.445Z,70.50
2023-04-02T06:30:31.450Z,70.12
2023-04-02T06:31:31.439Z,70.71
2023-04-02T06:32:31.430Z,69.98
2023-04-02T06:33:31.421Z,69.57
2023-04-02T06:34:31.391Z,69.26
2023-04-02T06:35:31.388Z,69.16
2023-04-02T06:36:31.387Z,69.43
2023-04-02T06:37:31.367Z,69.33
2023-04-02T06:38:31.347Z,68.40
2023-04-02T06:39:31.341Z,68.71
2023-04-02T06:40:31.330Z,67.99
2023-04-02T06:41:31.360Z,68.33
2023-04-02T06:42:31.319Z,67.30
2023-04-02T06:43:31.322Z,67.88
2023-04-02T06:44:31.293Z,67.82
2023-04-02T06:45:31.280Z,67.27
2023-04-02T06:46:31.350Z,68.09
2023-04-02T06:47:31.326Z,68.19
2023-04-02T06:48:31.251Z,68.16
2023-04-02T06:49:31.238Z,67.78
2023-04-02T06:50:31.301Z,67.44
2023-04-02T06:51:31.214Z,67.24
2023-04-02T06:52:31.987Z,66.20
2023-04-02T06:53:31.196Z,66.20
2023-04-02T06:54:31.184Z,67.00
2023-04-02T06:55:31.231Z,67.00
2023-04-02T06:56:31.161Z,66.07
2023-04-02T06:57:31.269Z,66.17
2023-04-02T06:58:31.141Z,66.27
2023-04-02T06:59:31.150Z,65.91
2023-04-02T07:00:31.125Z,65.15
2023-04-02T07:01:31.182Z,64.84
2023-04-02T07:02:31.176Z,64.12
2023-04-02T07:03:31.089Z,63.71
2023-04-02T07:04:31.114Z,63.50
2023-04-02T07:05:31.073Z,63.71
2023-04-02T07:06:38.116Z,64.12
2023-04-02T07:07:31.046Z,64.32
2023-04-02T07:08:31.030Z,63.43
2023-04-02T07:09:31.022Z,64.46
2023-04-02T07:10:31.007Z,63.32
2023-04-02T07:11:31.003Z,63.43
2023-04-02T07:12:31.004Z,63.50
2023-04-02T07:13:30.981Z,62.85
2023-04-02T07:14:30.962Z,63.47
2023-04-02T07:15:30.974Z,63.65
2023-04-02T07:16:31.030Z,62.63
2023-04-02T07:17:31.034Z,61.19
2023-04-02T07:18:30.920Z,59.77
2023-04-02T07:19:30.916Z,57.36
2023-04-02T07:20:30.918Z,56.85
2023-04-02T07:21:30.891Z,55.79
2023-04-02T07:22:30.924Z,56.71
2023-04-02T07:23:30.873Z,55.82
2023-04-02T07:24:30.856Z,55.85
2023-04-02T07:25:30.860Z,55.79
2023-04-02T07:26:30.835Z,57.36
2023-04-02T07:27:30.840Z,58.73
2023-04-02T07:28:30.809Z,59.37
2023-04-02T07:29:30.802Z,60.22
2023-04-02T07:30:30.794Z,60.97
2023-04-02T07:31:30.876Z,61.98
2023-04-02T07:32:30.939Z,61.69
2023-04-02T07:33:30.825Z,62.07
2023-04-02T07:34:30.759Z,60.77
2023-04-02T07:35:30.744Z,60.66
2023-04-02T07:36:30.765Z,60.79
2023-04-02T07:37:30.739Z,60.59
2023-04-02T07:38:30.700Z,61.54
2023-04-02T07:39:30.695Z,61.65
2023-04-02T07:40:30.675Z,61.33
2023-04-02T07:41:30.674Z,61.96
2023-04-02T07:42:30.674Z,61.96
2023-04-02T07:43:30.695Z,62.40
2023-04-02T07:44:30.642Z,61.26
2023-04-02T07:45:30.631Z,61.68
2023-04-02T07:46:30.663Z,61.88
2023-04-02T07:47:30.731Z,61.78
2023-04-02T07:48:30.595Z,60.64
2023-04-02T07:49:30.601Z,60.93
2023-04-02T07:50:30.571Z,60.89
2023-04-02T07:51:30.564Z,59.37
2023-04-02T07:52:30.567Z,58.65
2023-04-02T07:53:30.605Z,59.47
2023-04-02T07:54:30.537Z,59.91
2023-04-02T07:55:30.525Z,60.22
2023-04-02T07:56:30.512Z,60.84
2023-04-02T07:57:30.577Z,59.84
2023-04-02T07:58:30.484Z,61.28
2023-04-02T07:59:30.482Z,60.87
2023-04-02T08:00:30.522Z,60.89
2023-04-02T08:01:30.454Z,61.03
2023-04-02T08:02:30.560Z,61.44
2023-04-02T08:03:30.593Z,62.16
2023-04-02T08:04:30.422Z,61.65
2023-04-02T08:05:30.431Z,61.96
2023-04-02T08:06:30.397Z,62.81
2023-04-02T08:07:30.403Z,61.98
2023-04-02T08:08:30.376Z,61.78
2023-04-02T08:09:30.370Z,62.40
2023-04-02T08:10:30.358Z,63.32
2023-04-02T08:11:31.825Z,64.25
2023-04-02T08:12:30.366Z,63.22
2023-04-02T08:13:30.339Z,64.46
2023-04-02T08:14:30.345Z,63.74
2023-04-02T08:15:30.306Z,63.53
2023-04-02T08:16:30.297Z,63.40
2023-04-02T08:17:30.334Z,62.16
2023-04-02T08:18:30.278Z,63.40
2023-04-02T08:19:30.285Z,63.50
2023-04-02T08:20:30.259Z,62.16
2023-04-02T08:21:30.238Z,62.06
2023-04-02T08:22:30.247Z,62.19
2023-04-02T08:23:30.244Z,63.53
2023-04-02T08:24:30.209Z,63.95
2023-04-02T08:25:30.202Z,63.22
2023-04-02T08:26:30.196Z,63.32
2023-04-02T08:27:30.181Z,63.22
2023-04-02T08:28:30.250Z,61.98
2023-04-02T08:29:30.159Z,62.50
2023-04-02T08:30:30.140Z,61.98
2023-04-02T08:31:30.160Z,63.43
2023-04-02T08:32:30.152Z,63.53
2023-04-02T08:33:30.352Z,63.32
2023-04-02T08:34:30.109Z,62.81
2023-04-02T08:35:30.113Z,61.68
2023-04-02T08:36:30.144Z,63.32
2023-04-02T08:37:30.111Z,63.32
2023-04-02T08:38:30.076Z,62.88
2023-04-02T08:39:30.047Z,63.50
2023-04-02T08:40:30.040Z,63.60
2023-04-02T08:41:30.026Z,63.09
2023-04-02T08:42:30.014Z,61.75
2023-04-02T08:43:30.035Z,61.96
2023-04-02T08:44:30.014Z,62.24
2023-04-02T08:45:29.989Z,62.44
2023-04-02T08:46:30.027Z,62.00
2023-04-02T08:47:29.983Z,60.69
2023-04-02T08:48:29.969Z,60.59
2023-04-02T08:49:29.944Z,61.41
2023-04-02T08:50:29.926Z,61.61
2023-04-02T08:51:29.941Z,61.82
2023-04-02T08:52:29.928Z,62.03
2023-04-02T08:53:29.920Z,61.82
2023-04-02T08:54:30.476Z,61.93
2023-04-02T08:55:29.881Z,62.03
2023-04-02T08:56:29.872Z,61.93
2023-04-02T08:57:29.890Z,62.75
2023-04-02T08:58:29.854Z,63.37
2023-04-02T08:59:29.874Z,63.37
2023-04-02T09:00:29.819Z,61.61
2023-04-02T09:01:29.848Z,61.41
2023-04-02T09:02:29.851Z,61.31
2023-04-02T09:03:29.789Z,61.31
2023-04-02T09:04:29.798Z,61.00
2023-04-02T09:05:29.763Z,61.52
2023-04-02T09:06:29.752Z,61.61
2023-04-02T09:07:29.789Z,61.41
2023-04-02T09:08:29.749Z,61.82
2023-04-02T09:09:29.717Z,62.03
2023-04-02T09:10:29.709Z,61.38
2023-04-02T09:11:29.712Z,61.80
2023-04-02T09:12:29.703Z,61.80
2023-04-02T09:13:29.679Z,61.28
2023-04-02T09:14:29.666Z,60.97
2023-04-02T09:15:29.664Z,60.25
2023-04-02T09:16:29.664Z,60.87
2023-04-02T09:17:32.803Z,60.56
2023-04-02T09:18:30.742Z,60.68
2023-04-02T09:19:29.616Z,58.75
2023-04-02T09:20:29.600Z,56.59
2023-04-02T09:21:29.599Z,54.61
2023-04-02T09:22:29.595Z,55.23
2023-04-02T09:23:29.605Z,53.80
2023-04-02T09:24:29.567Z,55.23
2023-04-02T09:25:29.552Z,55.13
2023-04-02T09:26:29.535Z,55.36
2023-04-02T09:27:29.543Z,55.66
2023-04-02T09:28:29.519Z,55.82
2023-04-02T09:29:29.508Z,55.43
2023-04-02T09:30:29.503Z,56.18
2023-04-02T09:31:29.526Z,56.59
2023-04-02T09:32:29.554Z,56.31
2023-04-02T09:33:29.464Z,57.72
2023-04-02T09:34:29.456Z,56.79
2023-04-02T09:35:29.440Z,56.87
2023-04-02T09:36:29.478Z,56.34
2023-04-02T09:37:29.487Z,56.20
2023-04-02T09:38:29.417Z,56.20
2023-04-02T09:39:29.435Z,55.49
2023-04-02T09:40:29.396Z,55.15
2023-04-02T09:41:29.391Z,54.08
2023-04-02T09:42:29.385Z,52.70
2023-04-02T09:43:29.412Z,52.80
2023-04-02T09:44:29.347Z,52.08
2023-04-02T09:45:29.333Z,51.24
2023-04-02T09:46:29.390Z,51.21
2023-04-02T09:47:29.388Z,50.58
2023-04-02T09:48:29.298Z,50.56
2023-04-02T09:49:29.328Z,48.94
2023-04-02T09:50:29.330Z,48.74
2023-04-02T09:51:29.364Z,49.99
2023-04-02T09:52:29.319Z,50.14
2023-04-02T09:53:29.355Z,50.16
2023-04-02T09:54:29.237Z,51.21
2023-04-02T09:55:29.252Z,50.70
2023-04-02T09:56:29.215Z,51.10
2023-04-02T09:57:29.331Z,51.21
2023-04-02T09:58:29.210Z,50.82
2023-04-02T09:59:29.212Z,52.39
2023-04-02T10:00:32.550Z,51.98
2023-04-02T10:01:29.214Z,51.64
2023-04-02T10:02:29.259Z,51.23
2023-04-02T10:03:29.149Z,50.77
2023-04-02T10:04:29.148Z,51.39
2023-04-02T10:05:40.052Z,53.03
2023-04-02T10:06:30.106Z,52.00
2023-04-02T10:07:29.092Z,51.39
2023-04-02T10:08:29.095Z,51.18
2023-04-02T10:09:29.068Z,51.56
2023-04-02T10:10:29.066Z,50.77
2023-04-02T10:11:36.416Z,50.97
2023-04-02T10:12:30.036Z,51.36
2023-04-02T10:13:29.065Z,52.61
2023-04-02T10:14:29.015Z,52.72
2023-04-02T10:15:29.008Z,52.72
2023-04-02T10:16:29.096Z,52.54
2023-04-02T10:17:29.013Z,52.54
2023-04-02T10:18:28.985Z,52.95
2023-04-02T10:19:28.956Z,52.64
2023-04-02T10:20:30.502Z,53.56
2023-04-02T10:21:28.936Z,52.74
2023-04-02T10:22:28.927Z,52.54
2023-04-02T10:23:28.952Z,52.64
2023-04-02T10:24:28.967Z,53.46
2023-04-02T10:25:28.917Z,52.95
2023-04-02T10:26:28.896Z,52.64
2023-04-02T10:27:28.908Z,52.64
2023-04-02T10:28:28.877Z,53.25
2023-04-02T10:29:28.860Z,52.95
2023-04-02T10:30:28.891Z,52.51
2023-04-02T10:31:28.849Z,52.11
2023-04-02T10:32:28.868Z,50.52
2023-04-02T10:33:28.839Z,49.91
2023-04-02T10:34:28.830Z,51.04
2023-04-02T10:35:28.823Z,50.65
2023-04-02T10:36:28.781Z,52.83
2023-04-02T10:37:28.768Z,52.67
2023-04-02T10:38:28.790Z,52.97
2023-04-02T10:39:28.744Z,54.13
2023-04-02T10:40:28.737Z,53.92
2023-04-02T10:41:28.722Z,54.33
2023-04-02T10:42:28.720Z,53.64
2023-04-02T10:43:28.754Z,54.05
2023-04-02T10:44:28.702Z,54.46
2023-04-02T10:45:28.691Z,55.18
2023-04-02T10:46:28.704Z,54.15
2023-04-02T10:47:28.666Z,54.77
2023-04-02T10:48:28.667Z,54.97
2023-04-02T10:49:28.701Z,54.38
2023-04-02T10:50:28.635Z,54.49
2023-04-02T10:51:28.618Z,54.90
2023-04-02T10:52:28.608Z,54.51
2023-04-02T10:53:28.615Z,55.54
2023-04-02T10:54:28.585Z,54.92
2023-04-02T10:55:28.574Z,54.51
2023-04-02T10:56:31.418Z,54.61
2023-04-02T10:57:29.592Z,55.15
2023-04-02T10:58:28.557Z,55.05
2023-04-02T10:59:28.547Z,55.26
2023-04-02T11:00:28.517Z,55.98
2023-04-02T11:01:28.575Z,56.38
2023-04-02T11:02:28.556Z,57.31
2023-04-02T11:03:28.690Z,56.90
2023-04-02T11:04:28.512Z,55.79
2023-04-02T11:05:28.470Z,57.23
2023-04-02T11:06:28.683Z,57.10
2023-04-02T11:07:28.444Z,56.49
2023-04-02T11:08:28.446Z,56.49
2023-04-02T11:09:28.424Z,55.59
2023-04-02T11:10:28.413Z,58.06
2023-04-02T11:11:28.402Z,57.23
2023-04-02T11:12:28.390Z,57.10
2023-04-02T11:13:28.398Z,57.51
2023-04-02T11:14:28.368Z,56.38
2023-04-02T11:15:28.376Z,57.41
2023-04-02T11:16:28.394Z,57.41
2023-04-02T11:17:28.382Z,56.70
2023-04-02T11:18:28.339Z,57.21
2023-04-02T11:19:28.338Z,56.51
2023-04-02T11:20:28.301Z,57.00
2023-04-02T11:21:28.293Z,56.79
2023-04-02T11:22:28.288Z,57.31
2023-04-02T11:23:28.348Z,56.38
2023-04-02T11:24:28.259Z,56.38
2023-04-02T11:25:28.243Z,57.10
2023-04-02T11:26:28.240Z,57.51
2023-04-02T11:27:28.237Z,58.54
2023-04-02T11:28:28.256Z,56.93
2023-04-02T11:29:28.211Z,57.23
2023-04-02T11:30:28.197Z,57.54
2023-04-02T11:31:28.216Z,56.93
2023-04-02T11:32:28.221Z,56.74
2023-04-02T11:33:36.592Z,57.23
2023-04-02T11:34:29.152Z,57.54
2023-04-02T11:35:28.135Z,56.62
2023-04-02T11:36:28.134Z,56.41
2023-04-02T11:37:28.119Z,56.41
2023-04-02T11:38:28.129Z,56.85
2023-04-02T11:39:28.125Z,57.16
2023-04-02T11:40:28.091Z,56.74
2023-04-02T11:41:28.075Z,57.26
2023-04-02T11:42:28.063Z,57.06
2023-04-02T11:43:28.079Z,56.21
2023-04-02T11:44:28.059Z,57.16
2023-04-02T11:45:28.056Z,57.16
2023-04-02T11:46:28.080Z,57.16
2023-04-02T11:47:28.107Z,56.95
2023-04-02T11:48:28.049Z,57.06
2023-04-02T11:49:28.012Z,57.54
2023-04-02T11:50:27.977Z,57.72
2023-04-02T11:51:27.966Z,56.59
2023-04-02T11:52:27.989Z,57.00
2023-04-02T11:53:27.959Z,57.10
2023-04-02T11:54:27.940Z,56.59
2023-04-02T11:55:27.936Z,57.31
2023-04-02T11:56:27.938Z,59.16
2023-04-02T11:57:28.014Z,57.72
2023-04-02T11:58:27.897Z,57.49
2023-04-02T11:59:27.875Z,56.67
2023-04-02T12:00:27.868Z,56.46
2023-04-02T12:01:27.860Z,54.69
2023-04-02T12:02:27.924Z,54.90
2023-04-02T12:03:27.909Z,55.62
2023-04-02T12:04:27.861Z,55.54
2023-04-02T12:05:27.909Z,55.33
2023-04-02T12:06:27.840Z,54.72
2023-04-02T12:07:27.788Z,54.72
2023-04-02T12:08:27.801Z,56.98
2023-04-02T12:09:27.770Z,55.85
2023-04-02T12:10:27.755Z,54.82
2023-04-02T12:11:27.755Z,55.30
2023-04-02T12:12:27.738Z,55.02
2023-04-02T12:13:27.743Z,55.13
2023-04-02T12:14:27.718Z,54.95
2023-04-02T12:15:27.699Z,55.77
2023-04-02T12:16:27.708Z,55.36
2023-04-02T12:17:27.713Z,56.38
2023-04-02T12:18:27.699Z,55.64
2023-04-02T12:19:27.683Z,55.10
2023-04-02T12:20:27.653Z,55.23
2023-04-02T12:21:27.636Z,55.10
2023-04-02T12:22:27.649Z,55.21
2023-04-02T12:23:27.644Z,55.21
2023-04-02T12:24:27.673Z,55.10
2023-04-02T12:25:27.592Z,55.21
2023-04-02T12:26:27.606Z,55.49
2023-04-02T12:27:27.741Z,56.51
2023-04-02T12:28:27.570Z,55.21
2023-04-02T12:29:27.555Z,54.38
2023-04-02T12:30:27.537Z,54.59
2023-04-02T12:31:27.589Z,54.28
2023-04-02T12:32:29.593Z,54.49
2023-04-02T12:33:27.540Z,53.77
2023-04-02T12:34:27.496Z,54.05
2023-04-02T12:35:27.516Z,54.28
2023-04-02T12:36:27.482Z,54.77
2023-04-02T12:37:27.463Z,55.62
2023-04-02T12:38:27.472Z,54.77
2023-04-02T12:39:28.434Z,54.90
2023-04-02T12:40:27.436Z,54.18
2023-04-02T12:41:27.500Z,54.08
2023-04-02T12:42:27.406Z,53.87
2023-04-02T12:43:27.430Z,52.23
2023-04-02T12:44:27.385Z,53.97
2023-04-02T12:45:29.372Z,54.38
2023-04-02T12:46:27.474Z,54.28
2023-04-02T12:47:27.376Z,54.08
2023-04-02T12:48:27.362Z,53.46
2023-04-02T12:49:27.371Z,52.51
2023-04-02T12:50:27.320Z,54.15
2023-04-02T12:51:28.419Z,53.54
2023-04-02T12:52:27.303Z,52.72